sensor_id;sensor_type;location;lat;lon;timestamp;pressure;altitude;pressure_sealevel;temperature;humidity
80976;BME280;70437;49.466;11.002;2024-03-23T00:55:48;97422.16;;;10.15;100.00
80976;BME280;70437;49.466;11.002;2024-03-23T00:58:19;97412.72;;;10.12;98.87
80976;BME280;70437;49.466;11.002;2024-03-23T01:00:46;97406.91;;;10.15;98.47
80976;BME280;70437;49.466;11.002;2024-03-23T01:03:15;97392.59;;;10.09;98.46
80976;BME280;70437;49.466;11.002;2024-03-23T01:05:42;97391.81;;;10.09;99.88
80976;BME280;70437;49.466;11.002;2024-03-23T01:08:11;97394.13;;;10.05;100.00
80976;BME280;70437;49.466;11.002;2024-03-23T01:10:40;97392.97;;;10.01;100.00
80976;BME280;70437;49.466;11.002;2024-03-23T01:13:11;97393.06;;;10.06;100.00
80976;BME280;70437;49.466;11.002;2024-03-23T01:15:39;97391.50;;;10.22;97.54
80976;BME280;70437;49.466;11.002;2024-03-23T01:18:07;97377.28;;;10.33;94.65
80976;BME280;70437;49.466;11.002;2024-03-23T01:20:35;97381.56;;;10.34;94.46
80976;BME280;70437;49.466;11.002;2024-03-23T01:23:04;97384.50;;;10.33;93.13
80976;BME280;70437;49.466;11.002;2024-03-23T01:25:31;97375.31;;;10.29;93.16
80976;BME280;70437;49.466;11.002;2024-03-23T01:28:03;97372.09;;;10.27;93.36
80976;BME280;70437;49.466;11.002;2024-03-23T01:30:30;97368.34;;;10.28;93.46
80976;BME280;70437;49.466;11.002;2024-03-23T01:32:58;97365.75;;;10.33;92.54
80976;BME280;70437;49.466;11.002;2024-03-23T01:35:25;97381.38;;;10.36;91.99
80976;BME280;70437;49.466;11.002;2024-03-23T01:37:54;97369.94;;;10.41;91.08
80976;BME280;70437;49.466;11.002;2024-03-23T01:40:21;97367.97;;;10.36;91.17
80976;BME280;70437;49.466;11.002;2024-03-23T01:42:55;97368.56;;;10.26;93.47
80976;BME280;70437;49.466;11.002;2024-03-23T01:45:26;97363.09;;;10.21;94.08
80976;BME280;70437;49.466;11.002;2024-03-23T01:47:54;97356.84;;;10.27;93.84
80976;BME280;70437;49.466;11.002;2024-03-23T01:50:21;97343.19;;;10.29;93.82
80976;BME280;70437;49.466;11.002;2024-03-23T01:52:50;97347.38;;;10.36;93.06
80976;BME280;70437;49.466;11.002;2024-03-23T01:55:19;97348.00;;;10.44;91.42
80976;BME280;70437;49.466;11.002;2024-03-23T01:57:50;97342.50;;;10.50;90.92
80976;BME280;70437;49.466;11.002;2024-03-23T02:00:17;97342.91;;;10.59;89.49
80976;BME280;70437;49.466;11.002;2024-03-23T02:02:47;97334.38;;;10.62;90.14
80976;BME280;70437;49.466;11.002;2024-03-23T02:05:15;97324.25;;;10.64;89.29
80976;BME280;70437;49.466;11.002;2024-03-23T02:07:43;97325.06;;;10.65;88.13
80976;BME280;70437;49.466;11.002;2024-03-23T02:10:11;97320.19;;;10.61;88.58
80976;BME280;70437;49.466;11.002;2024-03-23T02:12:41;97310.19;;;10.57;89.30
80976;BME280;70437;49.466;11.002;2024-03-23T02:15:08;97306.16;;;10.54;89.79
80976;BME280;70437;49.466;11.002;2024-03-23T02:17:36;97317.16;;;10.58;88.95
80976;BME280;70437;49.466;11.002;2024-03-23T02:20:06;97314.34;;;10.65;88.91
80976;BME280;70437;49.466;11.002;2024-03-23T02:22:36;97300.53;;;10.56;90.28
80976;BME280;70437;49.466;11.002;2024-03-23T02:25:05;97285.13;;;10.46;91.63
80976;BME280;70437;49.466;11.002;2024-03-23T02:27:34;97276.22;;;10.41;92.94
80976;BME280;70437;49.466;11.002;2024-03-23T02:30:03;97277.00;;;10.41;93.09
80976;BME280;70437;49.466;11.002;2024-03-23T02:32:31;97274.97;;;10.48;91.95
80976;BME280;70437;49.466;11.002;2024-03-23T02:34:58;97268.59;;;10.49;91.68
80976;BME280;70437;49.466;11.002;2024-03-23T02:37:26;97271.09;;;10.56;90.72
80976;BME280;70437;49.466;11.002;2024-03-23T02:39:54;97264.19;;;10.60;90.08
80976;BME280;70437;49.466;11.002;2024-03-23T02:42:24;97265.13;;;10.71;89.07
80976;BME280;70437;49.466;11.002;2024-03-23T02:44:53;97248.84;;;10.72;88.67
80976;BME280;70437;49.466;11.002;2024-03-23T02:47:21;97255.88;;;10.78;88.01
80976;BME280;70437;49.466;11.002;2024-03-23T02:49:49;97255.41;;;10.81;87.33
80976;BME280;70437;49.466;11.002;2024-03-23T02:52:17;97241.09;;;10.76;88.14
80976;BME280;70437;49.466;11.002;2024-03-23T02:54:46;97240.22;;;10.70;89.65
80976;BME280;70437;49.466;11.002;2024-03-23T02:57:17;97236.25;;;10.73;89.31
80976;BME280;70437;49.466;11.002;2024-03-23T02:59:47;97227.47;;;10.77;89.60
80976;BME280;70437;49.466;11.002;2024-03-23T03:02:16;97220.00;;;10.79;89.34
80976;BME280;70437;49.466;11.002;2024-03-23T03:04:44;97218.13;;;10.80;88.62
80976;BME280;70437;49.466;11.002;2024-03-23T03:07:13;97209.34;;;10.84;88.33
80976;BME280;70437;49.466;11.002;2024-03-23T03:09:40;97212.84;;;10.85;89.15
80976;BME280;70437;49.466;11.002;2024-03-23T03:12:08;97203.16;;;10.84;89.32
80976;BME280;70437;49.466;11.002;2024-03-23T03:14:36;97217.16;;;10.86;89.31
80976;BME280;70437;49.466;11.002;2024-03-23T03:17:05;97209.16;;;10.91;89.55
80976;BME280;70437;49.466;11.002;2024-03-23T03:19:33;97208.91;;;10.93;90.02
80976;BME280;70437;49.466;11.002;2024-03-23T03:22:00;97204.88;;;10.90;90.64
80976;BME280;70437;49.466;11.002;2024-03-23T03:24:31;97197.25;;;10.82;92.55
80976;BME280;70437;49.466;11.002;2024-03-23T03:26:59;97189.56;;;10.69;96.52
80976;BME280;70437;49.466;11.002;2024-03-23T03:29:29;97173.94;;;10.44;100.00
80976;BME280;70437;49.466;11.002;2024-03-23T03:32:08;97167.06;;;10.31;100.00
80976;BME280;70437;49.466;11.002;2024-03-23T03:34:40;97162.91;;;10.23;100.00
80976;BME280;70437;49.466;11.002;2024-03-23T03:37:07;97170.72;;;10.25;100.00
80976;BME280;70437;49.466;11.002;2024-03-23T03:39:35;97168.19;;;10.35;100.00
80976;BME280;70437;49.466;11.002;2024-03-23T03:42:03;97159.53;;;10.45;100.00
80976;BME280;70437;49.466;11.002;2024-03-23T03:44:33;97159.06;;;10.53;100.00
80976;BME280;70437;49.466;11.002;2024-03-23T03:47:00;97157.59;;;10.62;100.00
80976;BME280;70437;49.466;11.002;2024-03-23T03:49:30;97153.88;;;10.63;100.00
80976;BME280;70437;49.466;11.002;2024-03-23T03:51:57;97138.56;;;10.58;100.00
80976;BME280;70437;49.466;11.002;2024-03-23T03:54:29;97136.28;;;10.50;100.00
80976;BME280;70437;49.466;11.002;2024-03-23T03:56:58;97135.72;;;10.48;100.00
80976;BME280;70437;49.466;11.002;2024-03-23T03:59:26;97122.25;;;10.43;100.00
80976;BME280;70437;49.466;11.002;2024-03-23T04:01:54;97099.16;;;10.37;100.00
80976;BME280;70437;49.466;11.002;2024-03-23T04:04:22;97096.66;;;10.30;100.00
80976;BME280;70437;49.466;11.002;2024-03-23T04:06:59;97088.88;;;10.29;100.00
80976;BME280;70437;49.466;11.002;2024-03-23T04:09:28;97083.28;;;10.13;100.00
80976;BME280;70437;49.466;11.002;2024-03-23T04:11:59;97081.66;;;10.12;100.00
80976;BME280;70437;49.466;11.002;2024-03-23T04:14:30;97087.75;;;10.08;100.00
80976;BME280;70437;49.466;11.002;2024-03-23T04:16:57;97078.75;;;9.97;100.00
80976;BME280;70437;49.466;11.002;2024-03-23T04:19:32;97070.47;;;9.99;100.00
80976;BME280;70437;49.466;11.002;2024-03-23T04:22:00;97081.50;;;10.02;100.00
80976;BME280;70437;49.466;11.002;2024-03-23T04:24:29;97082.38;;;10.08;100.00
80976;BME280;70437;49.466;11.002;2024-03-23T04:26:56;97084.25;;;10.07;100.00
80976;BME280;70437;49.466;11.002;2024-03-23T04:29:24;97087.31;;;10.16;100.00
80976;BME280;70437;49.466;11.002;2024-03-23T04:31:54;97095.09;;;10.18;100.00
80976;BME280;70437;49.466;11.002;2024-03-23T04:34:23;97098.50;;;10.13;100.00
80976;BME280;70437;49.466;11.002;2024-03-23T04:36:49;97109.06;;;10.20;100.00
80976;BME280;70437;49.466;11.002;2024-03-23T04:39:19;97104.94;;;10.29;100.00
80976;BME280;70437;49.466;11.002;2024-03-23T04:41:47;97104.13;;;10.28;100.00
80976;BME280;70437;49.466;11.002;2024-03-23T04:44:18;97096.91;;;10.29;100.00
80976;BME280;70437;49.466;11.002;2024-03-23T04:46:50;97088.78;;;10.24;100.00
80976;BME280;70437;49.466;11.002;2024-03-23T04:49:17;97084.91;;;10.15;100.00
80976;BME280;70437;49.466;11.002;2024-03-23T04:51:46;97079.63;;;10.03;100.00
80976;BME280;70437;49.466;11.002;2024-03-23T04:54:15;97077.38;;;9.95;100.00
80976;BME280;70437;49.466;11.002;2024-03-23T04:56:45;97083.78;;;9.94;100.00
80976;BME280;70437;49.466;11.002;2024-03-23T04:59:13;97086.13;;;9.90;100.00
80976;BME280;70437;49.466;11.002;2024-03-23T05:01:40;97086.22;;;9.95;100.00
80976;BME280;70437;49.466;11.002;2024-03-23T05:04:10;97076.88;;;9.98;100.00
80976;BME280;70437;49.466;11.002;2024-03-23T05:06:37;97075.25;;;10.13;100.00
80976;BME280;70437;49.466;11.002;2024-03-23T05:09:06;97076.56;;;10.28;100.00
80976;BME280;70437;49.466;11.002;2024-03-23T05:11:36;97072.31;;;10.32;100.00
80976;BME280;70437;49.466;11.002;2024-03-23T05:14:06;97058.44;;;10.35;100.00
80976;BME280;70437;49.466;11.002;2024-03-23T05:16:33;97055.59;;;10.42;100.00
80976;BME280;70437;49.466;11.002;2024-03-23T05:19:02;97058.63;;;10.50;99.55
80976;BME280;70437;49.466;11.002;2024-03-23T05:21:30;97048.03;;;10.60;97.29
80976;BME280;70437;49.466;11.002;2024-03-23T05:24:00;97040.16;;;10.76;95.35
80976;BME280;70437;49.466;11.002;2024-03-23T05:26:28;97034.19;;;10.91;92.73
80976;BME280;70437;49.466;11.002;2024-03-23T05:28:56;97033.22;;;11.02;90.93
80976;BME280;70437;49.466;11.002;2024-03-23T05:31:26;97024.53;;;11.17;88.97
80976;BME280;70437;49.466;11.002;2024-03-23T05:33:57;97028.38;;;11.26;87.55
80976;BME280;70437;49.466;11.002;2024-03-23T05:36:23;97032.63;;;11.22;88.16
80976;BME280;70437;49.466;11.002;2024-03-23T05:38:52;97034.50;;;11.21;88.03
80976;BME280;70437;49.466;11.002;2024-03-23T05:41:18;97039.59;;;11.23;87.86
80976;BME280;70437;49.466;11.002;2024-03-23T05:43:48;97042.28;;;11.23;87.91
80976;BME280;70437;49.466;11.002;2024-03-23T05:46:19;97038.06;;;11.32;86.99
80976;BME280;70437;49.466;11.002;2024-03-23T05:48:52;97050.75;;;11.42;86.01
80976;BME280;70437;49.466;11.002;2024-03-23T05:51:28;97047.28;;;11.46;85.63
80976;BME280;70437;49.466;11.002;2024-03-23T05:53:57;97040.81;;;11.42;85.52
80976;BME280;70437;49.466;11.002;2024-03-23T05:56:26;97046.75;;;11.44;85.66
80976;BME280;70437;49.466;11.002;2024-03-23T05:58:53;97038.75;;;11.49;85.27
80976;BME280;70437;49.466;11.002;2024-03-23T06:01:25;97041.84;;;11.36;88.64
80976;BME280;70437;49.466;11.002;2024-03-23T06:03:56;97038.97;;;11.16;91.58
80976;BME280;70437;49.466;11.002;2024-03-23T06:06:27;97046.38;;;11.03;99.39
80976;BME280;70437;49.466;11.002;2024-03-23T06:08:56;97040.31;;;10.86;100.00
80976;BME280;70437;49.466;11.002;2024-03-23T06:11:25;97040.44;;;10.74;100.00
80976;BME280;70437;49.466;11.002;2024-03-23T06:13:53;97048.97;;;10.71;100.00
80976;BME280;70437;49.466;11.002;2024-03-23T06:16:21;97049.91;;;10.60;100.00
80976;BME280;70437;49.466;11.002;2024-03-23T06:18:52;97037.88;;;10.62;100.00
80976;BME280;70437;49.466;11.002;2024-03-23T06:21:22;97034.00;;;10.53;100.00
80976;BME280;70437;49.466;11.002;2024-03-23T06:23:52;97030.78;;;10.51;100.00
80976;BME280;70437;49.466;11.002;2024-03-23T06:26:21;97033.84;;;10.38;100.00
80976;BME280;70437;49.466;11.002;2024-03-23T06:28:48;97033.53;;;10.34;100.00
80976;BME280;70437;49.466;11.002;2024-03-23T06:31:17;97035.06;;;10.30;100.00
80976;BME280;70437;49.466;11.002;2024-03-23T06:33:46;97040.00;;;10.38;100.00
80976;BME280;70437;49.466;11.002;2024-03-23T06:36:14;97046.44;;;10.37;100.00
80976;BME280;70437;49.466;11.002;2024-03-23T06:38:42;97047.97;;;10.33;100.00
80976;BME280;70437;49.466;11.002;2024-03-23T06:41:12;97035.72;;;10.37;100.00
80976;BME280;70437;49.466;11.002;2024-03-23T06:43:41;97034.16;;;10.42;100.00
80976;BME280;70437;49.466;11.002;2024-03-23T06:46:09;97027.47;;;10.44;100.00
80976;BME280;70437;49.466;11.002;2024-03-23T06:48:36;97029.88;;;10.41;100.00
80976;BME280;70437;49.466;11.002;2024-03-23T06:51:06;97028.81;;;10.42;100.00
80976;BME280;70437;49.466;11.002;2024-03-23T06:53:35;97026.19;;;10.47;100.00
80976;BME280;70437;49.466;11.002;2024-03-23T06:56:06;97029.19;;;10.50;100.00
80976;BME280;70437;49.466;11.002;2024-03-23T06:58:33;97027.09;;;10.57;100.00
80976;BME280;70437;49.466;11.002;2024-03-23T07:01:03;97037.75;;;10.52;100.00
80976;BME280;70437;49.466;11.002;2024-03-23T07:03:30;97039.09;;;10.50;100.00
80976;BME280;70437;49.466;11.002;2024-03-23T07:05:59;97032.94;;;10.49;100.00
80976;BME280;70437;49.466;11.002;2024-03-23T07:08:27;97052.84;;;10.58;100.00
80976;BME280;70437;49.466;11.002;2024-03-23T07:10:57;97041.31;;;10.58;100.00
80976;BME280;70437;49.466;11.002;2024-03-23T07:13:27;97061.50;;;10.66;100.00
80976;BME280;70437;49.466;11.002;2024-03-23T07:15:58;97046.97;;;10.61;100.00
80976;BME280;70437;49.466;11.002;2024-03-23T07:18:26;97070.28;;;10.61;100.00
80976;BME280;70437;49.466;11.002;2024-03-23T07:20:57;97054.69;;;10.58;100.00
80976;BME280;70437;49.466;11.002;2024-03-23T07:23:28;97059.56;;;10.61;100.00
80976;BME280;70437;49.466;11.002;2024-03-23T07:25:59;97071.59;;;10.58;100.00
80976;BME280;70437;49.466;11.002;2024-03-23T07:28:30;97062.66;;;10.53;100.00
80976;BME280;70437;49.466;11.002;2024-03-23T07:31:02;97073.00;;;10.44;100.00
80976;BME280;70437;49.466;11.002;2024-03-23T07:33:31;97062.22;;;10.39;100.00
80976;BME280;70437;49.466;11.002;2024-03-23T07:35:58;97073.63;;;10.29;100.00
80976;BME280;70437;49.466;11.002;2024-03-23T07:38:30;97081.59;;;10.24;100.00
80976;BME280;70437;49.466;11.002;2024-03-23T07:41:26;97093.91;;;10.25;100.00
80976;BME280;70437;49.466;11.002;2024-03-23T07:43:59;97095.84;;;10.30;100.00
80976;BME280;70437;49.466;11.002;2024-03-23T07:46:26;97101.44;;;10.28;100.00
80976;BME280;70437;49.466;11.002;2024-03-23T07:48:56;97105.59;;;10.36;100.00
80976;BME280;70437;49.466;11.002;2024-03-23T07:51:25;97110.41;;;10.39;100.00
80976;BME280;70437;49.466;11.002;2024-03-23T07:53:55;97125.16;;;10.58;100.00
80976;BME280;70437;49.466;11.002;2024-03-23T07:56:23;97129.13;;;10.56;100.00
80976;BME280;70437;49.466;11.002;2024-03-23T07:58:52;97120.78;;;10.52;100.00
80976;BME280;70437;49.466;11.002;2024-03-23T08:01:22;97116.38;;;10.63;100.00
80976;BME280;70437;49.466;11.002;2024-03-23T08:03:51;97109.16;;;10.85;100.00
80976;BME280;70437;49.466;11.002;2024-03-23T08:06:19;97106.97;;;10.82;100.00
80976;BME280;70437;49.466;11.002;2024-03-23T08:08:52;97112.22;;;10.94;100.00
80976;BME280;70437;49.466;11.002;2024-03-23T08:11:26;97119.19;;;10.95;100.00
80976;BME280;70437;49.466;11.002;2024-03-23T08:13:55;97138.97;;;10.50;100.00
80976;BME280;70437;49.466;11.002;2024-03-23T08:16:25;97161.53;;;10.21;100.00
80976;BME280;70437;49.466;11.002;2024-03-23T08:18:55;97175.66;;;9.54;100.00
80976;BME280;70437;49.466;11.002;2024-03-23T08:21:22;97199.41;;;9.10;100.00
80976;BME280;70437;49.466;11.002;2024-03-23T08:23:54;97199.75;;;8.73;100.00
80976;BME280;70437;49.466;11.002;2024-03-23T08:26:22;97216.00;;;8.72;100.00
80976;BME280;70437;49.466;11.002;2024-03-23T08:28:52;97246.31;;;8.54;100.00
80976;BME280;70437;49.466;11.002;2024-03-23T08:31:19;97258.72;;;8.37;100.00
80976;BME280;70437;49.466;11.002;2024-03-23T08:33:51;97247.53;;;8.28;100.00
80976;BME280;70437;49.466;11.002;2024-03-23T08:36:21;97274.56;;;8.31;100.00
80976;BME280;70437;49.466;11.002;2024-03-23T08:38:49;97260.97;;;8.21;100.00
80976;BME280;70437;49.466;11.002;2024-03-23T08:41:22;97278.25;;;8.19;100.00
80976;BME280;70437;49.466;11.002;2024-03-23T08:43:52;97299.25;;;8.15;100.00
80976;BME280;70437;49.466;11.002;2024-03-23T08:46:19;97309.06;;;8.03;100.00
80976;BME280;70437;49.466;11.002;2024-03-23T08:48:51;97319.03;;;8.07;100.00
80976;BME280;70437;49.466;11.002;2024-03-23T08:51:21;97329.97;;;8.48;100.00
80976;BME280;70437;49.466;11.002;2024-03-23T08:53:49;97332.66;;;8.59;100.00
80976;BME280;70437;49.466;11.002;2024-03-23T08:56:16;97344.84;;;8.25;100.00
80976;BME280;70437;49.466;11.002;2024-03-23T08:58:48;97352.06;;;8.67;100.00
80976;BME280;70437;49.466;11.002;2024-03-23T09:01:15;97362.84;;;8.30;100.00
80976;BME280;70437;49.466;11.002;2024-03-23T09:03:44;97363.38;;;8.39;100.00
80976;BME280;70437;49.466;11.002;2024-03-23T09:06:14;97369.25;;;8.82;100.00
80976;BME280;70437;49.466;11.002;2024-03-23T09:08:45;97376.31;;;8.53;100.00
80976;BME280;70437;49.466;11.002;2024-03-23T09:11:13;97369.69;;;9.61;100.00
80976;BME280;70437;49.466;11.002;2024-03-23T09:13:41;97368.81;;;9.21;100.00
80976;BME280;70437;49.466;11.002;2024-03-23T09:16:09;97379.50;;;8.85;100.00
80976;BME280;70437;49.466;11.002;2024-03-23T09:18:39;97398.66;;;8.82;100.00
80976;BME280;70437;49.466;11.002;2024-03-23T09:21:12;97395.44;;;8.50;100.00
80976;BME280;70437;49.466;11.002;2024-03-23T09:23:44;97409.34;;;8.41;100.00
80976;BME280;70437;49.466;11.002;2024-03-23T09:26:12;97403.16;;;8.70;100.00
80976;BME280;70437;49.466;11.002;2024-03-23T09:28:40;97408.03;;;8.73;100.00
80976;BME280;70437;49.466;11.002;2024-03-23T09:31:08;97416.59;;;8.33;100.00
80976;BME280;70437;49.466;11.002;2024-03-23T09:33:40;97425.81;;;8.19;100.00
80976;BME280;70437;49.466;11.002;2024-03-23T09:36:09;97427.16;;;8.58;100.00
80976;BME280;70437;49.466;11.002;2024-03-23T09:38:42;97425.03;;;9.14;100.00
80976;BME280;70437;49.466;11.002;2024-03-23T09:41:11;97430.72;;;9.88;97.18
80976;BME280;70437;49.466;11.002;2024-03-23T09:43:43;97434.00;;;9.67;94.74
80976;BME280;70437;49.466;11.002;2024-03-23T09:46:11;97442.13;;;9.83;92.55
80976;BME280;70437;49.466;11.002;2024-03-23T09:48:46;97445.84;;;9.59;88.33
80976;BME280;70437;49.466;11.002;2024-03-23T09:51:13;97448.03;;;9.97;86.84
80976;BME280;70437;49.466;11.002;2024-03-23T09:53:44;97447.03;;;9.16;90.23
80976;BME280;70437;49.466;11.002;2024-03-23T09:56:14;97442.81;;;9.08;87.38
80976;BME280;70437;49.466;11.002;2024-03-23T09:58:43;97439.47;;;9.60;85.74
80976;BME280;70437;49.466;11.002;2024-03-23T10:01:11;97447.38;;;9.67;83.20
80976;BME280;70437;49.466;11.002;2024-03-23T10:03:43;97460.75;;;9.31;83.75
80976;BME280;70437;49.466;11.002;2024-03-23T10:06:11;97472.78;;;9.10;86.29
80976;BME280;70437;49.466;11.002;2024-03-23T10:08:39;97474.66;;;9.10;84.40
80976;BME280;70437;49.466;11.002;2024-03-23T10:11:14;97468.63;;;9.03;82.75
80976;BME280;70437;49.466;11.002;2024-03-23T10:13:44;97485.44;;;8.61;85.27
80976;BME280;70437;49.466;11.002;2024-03-23T10:16:21;97510.06;;;8.64;85.44
80976;BME280;70437;49.466;11.002;2024-03-23T10:20:12;97497.13;;;9.21;82.13
80976;BME280;70437;49.466;11.002;2024-03-23T10:22:41;97474.00;;;9.73;76.77
80976;BME280;70437;49.466;11.002;2024-03-23T10:25:18;97473.63;;;9.46;78.41
80976;BME280;70437;49.466;11.002;2024-03-23T10:27:58;97475.03;;;9.37;78.00
80976;BME280;70437;49.466;11.002;2024-03-23T10:30:26;97481.09;;;9.68;75.77
80976;BME280;70437;49.466;11.002;2024-03-23T10:33:07;97485.88;;;10.41;70.80
80976;BME280;70437;49.466;11.002;2024-03-23T10:35:38;97494.19;;;9.22;73.37
80976;BME280;70437;49.466;11.002;2024-03-23T10:38:07;97500.41;;;9.58;71.66
80976;BME280;70437;49.466;11.002;2024-03-23T10:40:35;97509.47;;;9.57;71.54
80976;BME280;70437;49.466;11.002;2024-03-23T10:43:03;97507.84;;;9.56;71.04
80976;BME280;70437;49.466;11.002;2024-03-23T10:45:31;97510.69;;;9.07;71.51
80976;BME280;70437;49.466;11.002;2024-03-23T10:47:59;97514.81;;;8.61;73.15
80976;BME280;70437;49.466;11.002;2024-03-23T10:50:27;97496.03;;;8.68;73.12
80976;BME280;70437;49.466;11.002;2024-03-23T10:52:59;97507.28;;;8.89;72.86
80976;BME280;70437;49.466;11.002;2024-03-23T10:55:27;97518.50;;;9.32;70.54
80976;BME280;70437;49.466;11.002;2024-03-23T10:57:58;97537.34;;;8.96;71.23
80976;BME280;70437;49.466;11.002;2024-03-23T11:00:26;97528.81;;;9.17;71.19
80976;BME280;70437;49.466;11.002;2024-03-23T11:02:56;97531.69;;;9.04;72.39
80976;BME280;70437;49.466;11.002;2024-03-23T11:05:32;97542.47;;;8.97;71.18
80976;BME280;70437;49.466;11.002;2024-03-23T11:08:05;97517.09;;;9.18;69.60
80976;BME280;70437;49.466;11.002;2024-03-23T11:10:32;97503.19;;;9.63;66.81
80976;BME280;70437;49.466;11.002;2024-03-23T11:13:21;97507.84;;;9.79;65.60
80976;BME280;70437;49.466;11.002;2024-03-23T11:15:51;97507.91;;;10.31;63.08
80976;BME280;70437;49.466;11.002;2024-03-23T11:18:21;97525.63;;;10.09;62.23
80976;BME280;70437;49.466;11.002;2024-03-23T11:20:48;97522.94;;;9.85;62.96
80976;BME280;70437;49.466;11.002;2024-03-23T11:23:28;97514.59;;;10.86;59.80
80976;BME280;70437;49.466;11.002;2024-03-23T11:25:57;97521.44;;;10.53;59.07
80976;BME280;70437;49.466;11.002;2024-03-23T11:28:25;97518.78;;;9.78;60.75
80976;BME280;70437;49.466;11.002;2024-03-23T11:30:52;97512.00;;;9.63;60.81
80976;BME280;70437;49.466;11.002;2024-03-23T11:33:20;97525.50;;;9.33;62.35
80976;BME280;70437;49.466;11.002;2024-03-23T11:35:48;97533.38;;;9.28;63.93
80976;BME280;70437;49.466;11.002;2024-03-23T11:38:19;97536.44;;;9.44;63.16
80976;BME280;70437;49.466;11.002;2024-03-23T11:40:49;97543.41;;;10.03;60.62
80976;BME280;70437;49.466;11.002;2024-03-23T11:43:20;97538.44;;;9.60;60.94
80976;BME280;70437;49.466;11.002;2024-03-23T11:45:49;97544.47;;;9.55;59.12
80976;BME280;70437;49.466;11.002;2024-03-23T11:48:19;97548.19;;;10.25;57.26
80976;BME280;70437;49.466;11.002;2024-03-23T11:50:48;97552.25;;;11.25;52.81
80976;BME280;70437;49.466;11.002;2024-03-23T11:53:19;97560.34;;;10.56;55.29
80976;BME280;70437;49.466;11.002;2024-03-23T11:55:50;97566.56;;;10.21;55.05
80976;BME280;70437;49.466;11.002;2024-03-23T11:58:22;97544.19;;;11.25;48.70
80976;BME280;70437;49.466;11.002;2024-03-23T12:00:50;97541.94;;;10.88;50.57
80976;BME280;70437;49.466;11.002;2024-03-23T12:03:20;97546.44;;;10.71;51.98
80976;BME280;70437;49.466;11.002;2024-03-23T12:05:55;97536.28;;;12.41;50.99
80976;BME280;70437;49.466;11.002;2024-03-23T12:08:25;97533.53;;;12.14;47.36
80976;BME280;70437;49.466;11.002;2024-03-23T12:11:06;97527.25;;;11.86;48.27
80976;BME280;70437;49.466;11.002;2024-03-23T12:13:38;97516.44;;;12.20;47.02
80976;BME280;70437;49.466;11.002;2024-03-23T12:16:13;97514.25;;;12.61;44.89
80976;BME280;70437;49.466;11.002;2024-03-23T12:18:42;97531.47;;;11.32;47.35
80976;BME280;70437;49.466;11.002;2024-03-23T12:21:11;97519.34;;;11.63;48.34
80976;BME280;70437;49.466;11.002;2024-03-23T12:23:41;97532.44;;;11.93;47.76
80976;BME280;70437;49.466;11.002;2024-03-23T12:26:12;97521.78;;;12.86;44.93
80976;BME280;70437;49.466;11.002;2024-03-23T12:28:40;97535.03;;;12.27;46.41
80976;BME280;70437;49.466;11.002;2024-03-23T12:31:10;97527.91;;;11.94;43.79
80976;BME280;70437;49.466;11.002;2024-03-23T12:33:38;97521.38;;;12.06;44.79
80976;BME280;70437;49.466;11.002;2024-03-23T12:36:17;97520.59;;;11.89;42.80
80976;BME280;70437;49.466;11.002;2024-03-23T12:38:45;97509.88;;;12.11;42.67
80976;BME280;70437;49.466;11.002;2024-03-23T12:41:17;97501.41;;;12.19;41.90
80976;BME280;70437;49.466;11.002;2024-03-23T12:43:45;97494.69;;;12.22;41.70
80976;BME280;70437;49.466;11.002;2024-03-23T12:46:14;97490.22;;;13.30;40.57
80976;BME280;70437;49.466;11.002;2024-03-23T12:48:44;97504.25;;;11.57;43.11
80976;BME280;70437;49.466;11.002;2024-03-23T12:51:16;97492.63;;;12.07;42.14
80976;BME280;70437;49.466;11.002;2024-03-23T12:53:45;97506.75;;;11.80;42.87
80976;BME280;70437;49.466;11.002;2024-03-23T12:56:14;97496.75;;;13.12;40.65
80976;BME280;70437;49.466;11.002;2024-03-23T12:58:48;97495.31;;;11.18;44.58
80976;BME280;70437;49.466;11.002;2024-03-23T13:01:18;97499.84;;;11.68;44.11
80976;BME280;70437;49.466;11.002;2024-03-23T13:03:46;97497.56;;;11.93;43.57
80976;BME280;70437;49.466;11.002;2024-03-23T13:06:15;97482.38;;;11.48;44.40
80976;BME280;70437;49.466;11.002;2024-03-23T13:08:46;97489.94;;;12.07;43.44
80976;BME280;70437;49.466;11.002;2024-03-23T13:11:14;97492.84;;;11.50;44.17
80976;BME280;70437;49.466;11.002;2024-03-23T13:13:48;97487.78;;;12.26;41.62
80976;BME280;70437;49.466;11.002;2024-03-23T13:16:17;97484.97;;;11.60;43.52
80976;BME280;70437;49.466;11.002;2024-03-23T13:18:51;97492.53;;;11.12;44.19
80976;BME280;70437;49.466;11.002;2024-03-23T13:21:24;97495.13;;;11.07;44.19
80976;BME280;70437;49.466;11.002;2024-03-23T13:23:52;97484.56;;;11.01;44.52
80976;BME280;70437;49.466;11.002;2024-03-23T13:26:23;97481.00;;;10.26;45.44
80976;BME280;70437;49.466;11.002;2024-03-23T13:28:52;97473.19;;;11.44;43.44
80976;BME280;70437;49.466;11.002;2024-03-23T13:31:20;97479.00;;;12.13;41.68
80976;BME280;70437;49.466;11.002;2024-03-23T13:33:48;97474.34;;;12.75;40.39
80976;BME280;70437;49.466;11.002;2024-03-23T13:36:16;97463.88;;;12.73;39.37
80976;BME280;70437;49.466;11.002;2024-03-23T13:38:44;97475.25;;;12.85;39.30
80976;BME280;70437;49.466;11.002;2024-03-23T13:41:13;97481.88;;;12.73;39.50
80976;BME280;70437;49.466;11.002;2024-03-23T13:43:46;97478.66;;;13.03;38.82
80976;BME280;70437;49.466;11.002;2024-03-23T13:46:17;97476.03;;;13.35;37.98
80976;BME280;70437;49.466;11.002;2024-03-23T13:48:46;97470.06;;;13.33;38.03
80976;BME280;70437;49.466;11.002;2024-03-23T13:51:15;97480.63;;;12.58;39.38
80976;BME280;70437;49.466;11.002;2024-03-23T13:53:50;97471.66;;;13.29;38.09
80976;BME280;70437;49.466;11.002;2024-03-23T13:56:21;97463.59;;;13.34;38.12